createdAt,value
2022-08-07T00:00:29.759Z,101456.33
2022-08-07T00:03:13.694Z,101463.06
2022-08-07T00:05:45.789Z,101458.95
2022-08-07T00:08:19.014Z,101466.09
2022-08-07T00:10:57.589Z,101464.20
2022-08-07T00:13:31.079Z,101467.40
2022-08-07T00:16:05.917Z,101470.66
2022-08-07T00:18:40.121Z,101475.70
2022-08-07T00:21:57.003Z,101469.91
2022-08-07T00:24:02.965Z,101472.86
2022-08-07T00:26:59.488Z,101475.80
2022-08-07T00:29:31.276Z,101478.91
2022-08-07T00:32:03.957Z,101479.14
2022-08-07T00:34:37.769Z,101477.23
2022-08-07T00:37:09.763Z,101477.70
2022-08-07T00:39:45.244Z,101476.84
2022-08-07T00:42:29.273Z,101477.11
2022-08-07T00:45:02.190Z,101475.88
2022-08-07T00:48:07.744Z,101471.55
2022-08-07T00:50:46.525Z,101474.16
2022-08-07T00:53:24.072Z,101479.73
2022-08-07T00:56:03.131Z,101479.54
2022-08-07T00:58:35.875Z,101478.77
2022-08-07T01:01:09.963Z,101477.77
2022-08-07T01:03:57.391Z,101477.73
2022-08-07T01:06:32.265Z,101478.13
2022-08-07T01:09:04.998Z,101476.40
2022-08-07T01:12:23.356Z,101473.70
2022-08-07T01:14:30.080Z,101472.73
2022-08-07T01:17:04.178Z,101477.92
2022-08-07T01:19:42.041Z,101477.63
2022-08-07T01:22:29.235Z,101478.03
2022-08-07T01:25:02.389Z,101477.36
2022-08-07T01:27:51.321Z,101475.61
2022-08-07T01:30:27.287Z,101477.98
2022-08-07T01:33:02.317Z,101479.14
2022-08-07T01:35:52.625Z,101476.21
2022-08-07T01:38:29.199Z,101473.06
2022-08-07T01:41:08.233Z,101470.36
2022-08-07T01:43:43.424Z,101469.41
2022-08-07T01:46:16.086Z,101471.52
2022-08-07T01:48:53.763Z,101466.73
2022-08-07T01:52:03.970Z,101467.96
2022-08-07T01:54:36.451Z,101471.54
2022-08-07T01:57:34.154Z,101471.96
2022-08-07T02:00:13.899Z,101473.45
2022-08-07T02:03:12.498Z,101472.52
2022-08-07T02:05:59.490Z,101473.04
2022-08-07T02:08:40.414Z,101473.42
2022-08-07T02:11:30.777Z,101475.01
2022-08-07T02:14:08.757Z,101473.81
2022-08-07T02:16:43.045Z,101473.60
2022-08-07T02:20:05.478Z,101473.95
2022-08-07T02:22:12.774Z,101473.61
2022-08-07T02:24:53.664Z,101475.34
2022-08-07T02:27:27.460Z,101477.33
2022-08-07T02:30:08.725Z,101475.62
2022-08-07T02:33:03.787Z,101482.64
2022-08-07T02:36:26.880Z,101484.30
2022-08-07T02:38:31.631Z,101478.61
2022-08-07T02:41:08.016Z,101482.13
2022-08-07T02:43:48.961Z,101481.73
2022-08-07T02:46:26.214Z,101485.83
2022-08-07T02:49:03.297Z,101483.04
2022-08-07T02:51:42.517Z,101481.84
2022-08-07T02:54:27.139Z,101485.52
2022-08-07T02:57:03.116Z,101489.27
2022-08-07T02:59:39.712Z,101490.33
2022-08-07T03:02:14.090Z,101492.39
2022-08-07T03:04:49.293Z,101489.69
2022-08-07T03:08:05.250Z,101486.80
2022-08-07T03:10:16.893Z,101491.10
2022-08-07T03:12:51.920Z,101490.22
2022-08-07T03:15:28.058Z,101493.46
2022-08-07T03:18:20.152Z,101491.80
2022-08-07T03:20:52.958Z,101492.31
2022-08-07T03:23:33.759Z,101487.03
2022-08-07T03:26:07.376Z,101488.17
2022-08-07T03:28:49.553Z,101487.02
2022-08-07T03:31:42.142Z,101483.45
2022-08-07T03:34:22.493Z,101478.39
2022-08-07T03:36:58.491Z,101481.31
2022-08-07T03:39:46.190Z,101484.77
2022-08-07T03:42:27.111Z,101483.13
2022-08-07T03:44:57.928Z,101485.64
2022-08-07T03:47:48.239Z,101489.08
2022-08-07T03:50:23.113Z,101485.57
2022-08-07T03:52:57.316Z,101490.58
2022-08-07T03:55:46.108Z,101487.05
2022-08-07T03:58:33.727Z,101481.45
2022-08-07T04:01:17.433Z,101492.55
2022-08-07T04:03:55.319Z,101487.80
2022-08-07T04:06:37.118Z,101493.67
2022-08-07T04:09:16.674Z,101491.89
2022-08-07T04:12:25.796Z,101493.29
2022-08-07T04:14:47.639Z,101496.88
2022-08-07T04:17:22.017Z,101496.30
2022-08-07T04:19:59.197Z,101494.21
2022-08-07T04:22:33.437Z,101495.95
2022-08-07T04:25:12.742Z,101490.02
2022-08-07T04:28:00.350Z,101495.14
2022-08-07T04:30:43.413Z,101498.85
2022-08-07T04:33:31.893Z,101496.23
2022-08-07T04:36:09.893Z,101496.61
2022-08-07T04:38:43.363Z,101499.90
2022-08-07T04:41:19.104Z,101499.98
2022-08-07T04:44:11.994Z,101498.44
2022-08-07T04:47:04.387Z,101504.98
2022-08-07T04:49:57.672Z,101503.83
2022-08-07T04:52:51.127Z,101504.11
2022-08-07T04:58:11.958Z,101504.98
2022-08-07T04:58:49.781Z,101508.50
2022-08-07T05:01:36.471Z,101505.52
2022-08-07T05:04:17.910Z,101508.64
2022-08-07T05:07:19.472Z,101505.17
2022-08-07T05:10:00.724Z,101505.83
2022-08-07T05:12:46.094Z,101512.79
2022-08-07T05:15:24.102Z,101509.88
2022-08-07T05:18:08.729Z,101510.14
2022-08-07T05:20:44.728Z,101513.33
2022-08-07T05:23:35.681Z,101511.19
2022-08-07T05:26:18.890Z,101511.23
2022-08-07T05:29:04.220Z,101509.16
2022-08-07T05:31:40.472Z,101510.67
2022-08-07T05:34:26.204Z,101508.50
2022-08-07T05:37:00.386Z,101508.63
2022-08-07T05:40:16.569Z,101505.01
2022-08-07T05:42:36.714Z,101505.27
2022-08-07T05:45:25.909Z,101500.94
2022-08-07T05:48:09.158Z,101501.26
2022-08-07T05:50:46.409Z,101503.49
2022-08-07T05:54:13.719Z,101504.42
2022-08-07T05:56:14.003Z,101514.36
2022-08-07T05:58:52.878Z,101512.98
2022-08-07T06:01:34.792Z,101517.66
2022-08-07T06:04:10.477Z,101519.20
2022-08-07T06:06:45.899Z,101520.14
2022-08-07T06:09:20.129Z,101515.35
2022-08-07T06:11:53.394Z,101515.88
2022-08-07T06:14:28.749Z,101515.23
2022-08-07T06:17:07.331Z,101512.09
2022-08-07T06:19:52.051Z,101508.88
2022-08-07T06:22:40.027Z,101505.92
2022-08-07T06:25:34.722Z,101506.55
2022-08-07T06:28:10.349Z,101508.67
2022-08-07T06:30:50.815Z,101513.56
2022-08-07T06:33:27.489Z,101505.34
2022-08-07T06:36:12.777Z,101513.95
2022-08-07T06:40:16.831Z,101516.27
2022-08-07T06:42:04.054Z,101524.16
2022-08-07T06:44:57.684Z,101522.68
2022-08-07T06:47:48.372Z,101522.69
2022-08-07T06:50:23.149Z,101528.16
2022-08-07T06:52:58.484Z,101530.02
2022-08-07T06:55:48.282Z,101536.37
2022-08-07T06:58:28.981Z,101531.65
2022-08-07T07:01:10.618Z,101535.23
2022-08-07T07:03:49.871Z,101536.81
2022-08-07T07:06:28.240Z,101531.61
2022-08-07T07:09:17.052Z,101532.19
2022-08-07T07:12:15.507Z,101533.86
2022-08-07T07:14:59.234Z,101538.75
2022-08-07T07:17:39.069Z,101537.16
2022-08-07T07:20:20.248Z,101535.38
2022-08-07T07:24:06.250Z,101531.59
2022-08-07T07:26:34.514Z,101530.13
2022-08-07T07:29:40.687Z,101529.54
2022-08-07T07:31:44.681Z,101528.52
2022-08-07T07:34:21.582Z,101522.39
2022-08-07T07:37:21.502Z,101521.27
2022-08-07T07:40:10.190Z,101518.58
2022-08-07T07:42:54.184Z,101512.85
2022-08-07T07:46:38.222Z,101516.77
2022-08-07T07:48:35.325Z,101519.81
2022-08-07T07:51:10.417Z,101518.27
2022-08-07T07:53:51.717Z,101517.89
2022-08-07T07:56:30.370Z,101513.23
2022-08-07T07:59:03.969Z,101510.71
2022-08-07T08:02:03.812Z,101508.94
2022-08-07T08:04:38.224Z,101507.90
2022-08-07T08:07:11.765Z,101507.15
2022-08-07T08:09:51.679Z,101504.98
2022-08-07T08:12:52.104Z,101509.09
2022-08-07T08:15:17.505Z,101503.03
2022-08-07T08:17:58.673Z,101500.48
2022-08-07T08:20:49.281Z,101498.39
2022-08-07T08:23:41.204Z,101499.96
2022-08-07T08:26:32.941Z,101500.84
2022-08-07T08:29:06.261Z,101500.18
2022-08-07T08:32:17.386Z,101496.83
2022-08-07T08:34:39.729Z,101498.85
2022-08-07T08:37:59.888Z,101501.84
2022-08-07T08:40:23.587Z,101499.56
2022-08-07T08:43:10.158Z,101501.96
2022-08-07T08:45:59.310Z,101493.59
2022-08-07T08:48:41.060Z,101495.25
2022-08-07T08:51:26.214Z,101498.13
2022-08-07T08:54:21.836Z,101498.65
2022-08-07T08:56:58.530Z,101500.94
2022-08-07T08:59:42.034Z,101498.92
2022-08-07T09:02:36.655Z,101497.90
2022-08-07T09:05:36.843Z,101495.34
2022-08-07T09:08:24.127Z,101494.92
2022-08-07T09:11:13.897Z,101496.65
2022-08-07T09:14:09.644Z,101490.33
2022-08-07T09:16:53.605Z,101488.08
2022-08-07T09:19:51.000Z,101488.13
2022-08-07T09:24:52.592Z,101482.52
2022-08-07T09:25:53.452Z,101479.59
2022-08-07T09:30:02.282Z,101476.70
2022-08-07T09:31:39.995Z,101477.59
2022-08-07T09:34:27.280Z,101480.45
2022-08-07T09:37:05.588Z,101473.04
2022-08-07T09:39:54.755Z,101473.36
2022-08-07T09:42:45.522Z,101477.96
2022-08-07T09:47:50.208Z,101472.80
2022-08-07T09:48:30.129Z,101465.55
2022-08-07T09:52:15.694Z,101461.23
2022-08-07T09:54:27.238Z,101458.59
2022-08-07T09:57:36.903Z,101452.75
2022-08-07T10:00:31.998Z,101453.20
2022-08-07T10:04:05.661Z,101449.73
2022-08-07T10:06:59.616Z,101446.22
2022-08-07T10:10:03.936Z,101437.93
2022-08-07T10:12:54.981Z,101442.30
2022-08-07T10:15:48.381Z,101443.36
2022-08-07T10:18:56.378Z,101438.98
2022-08-07T10:22:14.756Z,101438.68
2022-08-07T10:24:50.105Z,101430.96
2022-08-07T10:27:51.319Z,101426.80
2022-08-07T10:30:34.814Z,101428.81
2022-08-07T10:34:06.909Z,101419.13
2022-08-07T10:36:47.618Z,101418.94
2022-08-07T10:39:42.182Z,101417.45
2022-08-07T10:42:37.545Z,101412.02
2022-08-07T10:45:45.331Z,101411.19
2022-08-07T10:48:34.710Z,101411.38
2022-08-07T10:51:16.293Z,101409.55
2022-08-07T10:54:14.389Z,101405.80
2022-08-07T10:57:01.979Z,101403.66
2022-08-07T10:59:51.050Z,101400.66
2022-08-07T11:02:38.487Z,101400.13
2022-08-07T11:05:20.283Z,101396.48
2022-08-07T11:08:03.846Z,101391.20
2022-08-07T11:10:43.566Z,101384.17
2022-08-07T11:14:45.144Z,101384.20
2022-08-07T11:16:30.562Z,101378.27
2022-08-07T11:19:11.176Z,101378.86
2022-08-07T11:21:55.499Z,101376.17
2022-08-07T11:24:45.680Z,101374.24
2022-08-07T11:28:00.761Z,101367.70
2022-08-07T11:30:19.462Z,101368.70
2022-08-07T11:33:18.277Z,101367.91
2022-08-07T11:36:25.188Z,101366.64
2022-08-07T11:39:19.732Z,101361.30
2022-08-07T11:42:02.760Z,101359.71
2022-08-07T11:44:52.470Z,101358.45
2022-08-07T11:47:56.053Z,101355.39
2022-08-07T11:50:57.935Z,101348.70
2022-08-07T11:54:00.893Z,101348.85
2022-08-07T11:56:46.472Z,101343.28
2022-08-07T12:00:11.795Z,101345.66
2022-08-07T12:03:44.540Z,101347.48
2022-08-07T12:06:40.234Z,101345.81
2022-08-07T12:09:27.037Z,101341.70
2022-08-07T12:12:09.190Z,101338.38
2022-08-07T12:15:00.254Z,101336.31
2022-08-07T12:17:58.638Z,101331.87
2022-08-07T12:20:36.957Z,101329.95
2022-08-07T12:24:05.919Z,101330.38
2022-08-07T12:26:29.783Z,101325.46
2022-08-07T12:29:11.291Z,101322.13
2022-08-07T12:31:52.920Z,101319.74
2022-08-07T12:34:38.065Z,101318.55
2022-08-07T12:37:16.544Z,101311.48
2022-08-07T12:39:58.659Z,101309.73
2022-08-07T12:42:32.326Z,101308.84
2022-08-07T12:45:10.144Z,101309.17
2022-08-07T12:47:49.118Z,101306.98
2022-08-07T12:50:39.192Z,101300.21
2022-08-07T12:53:22.203Z,101300.45
2022-08-07T12:56:04.166Z,101295.26
2022-08-07T12:58:46.789Z,101297.86
2022-08-07T13:01:43.628Z,101296.20
2022-08-07T13:04:35.170Z,101290.60
2022-08-07T13:08:12.638Z,101285.54
2022-08-07T13:10:51.757Z,101282.60
2022-08-07T13:13:46.659Z,101283.70
2022-08-07T13:16:30.679Z,101283.48
2022-08-07T13:19:45.637Z,101279.56
2022-08-07T13:22:29.925Z,101275.04
2022-08-07T13:25:06.026Z,101276.10
2022-08-07T13:28:12.514Z,101273.09
2022-08-07T13:30:44.119Z,101271.61
2022-08-07T13:34:31.722Z,101268.06
2022-08-07T13:36:29.460Z,101267.98
2022-08-07T13:39:12.858Z,101267.13
2022-08-07T13:41:54.717Z,101264.95
2022-08-07T13:44:34.548Z,101263.97
2022-08-07T13:47:15.974Z,101257.30
2022-08-07T13:50:35.518Z,101253.17
2022-08-07T13:52:54.308Z,101253.51
2022-08-07T13:55:27.615Z,101248.92
2022-08-07T13:58:27.812Z,101247.39
2022-08-07T14:01:12.362Z,101243.23
2022-08-07T14:04:07.440Z,101238.36
2022-08-07T14:06:41.473Z,101243.71
2022-08-07T14:10:03.101Z,101237.83
2022-08-07T14:12:27.546Z,101232.99
2022-08-07T14:15:06.215Z,101228.23
2022-08-07T14:18:15.518Z,101227.98
2022-08-07T14:20:40.603Z,101226.16
2022-08-07T14:23:59.310Z,101219.92
2022-08-07T14:26:29.944Z,101218.40
2022-08-07T14:30:03.066Z,101215.77
2022-08-07T14:32:00.117Z,101215.96
2022-08-07T14:34:34.587Z,101210.58
2022-08-07T14:37:36.458Z,101210.04
2022-08-07T14:40:27.076Z,101206.27
2022-08-07T14:43:57.782Z,101211.35
2022-08-07T14:45:58.371Z,101209.34
2022-08-07T14:48:34.013Z,101209.90
2022-08-07T14:51:16.102Z,101209.19
2022-08-07T14:54:30.502Z,101210.58
2022-08-07T14:56:48.939Z,101205.47
2022-08-07T15:00:03.358Z,101207.20
2022-08-07T15:02:31.695Z,101204.98
2022-08-07T15:05:20.234Z,101205.69
2022-08-07T15:07:56.676Z,101204.51
2022-08-07T15:10:30.922Z,101201.65
2022-08-07T15:13:11.678Z,101202.34
2022-08-07T15:15:52.600Z,101199.80
2022-08-07T15:18:36.015Z,101199.80
2022-08-07T15:21:59.562Z,101196.13
2022-08-07T15:27:11.202Z,101188.30
2022-08-07T15:30:08.644Z,101186.73
2022-08-07T15:32:50.730Z,101190.38
2022-08-07T15:36:00.786Z,101189.20
2022-08-07T15:38:50.999Z,101184.94
2022-08-07T15:44:23.777Z,101177.20
2022-08-07T15:50:05.069Z,101176.87
2022-08-07T15:52:40.722Z,101179.47
2022-08-07T15:55:23.333Z,101173.86
2022-08-07T15:58:21.053Z,101165.41
2022-08-07T16:00:56.339Z,101169.80
2022-08-07T16:03:46.243Z,101169.58
2022-08-07T16:06:29.017Z,101168.06
2022-08-07T16:09:02.991Z,101171.40
2022-08-07T16:12:28.625Z,101166.02
2022-08-07T16:15:54.945Z,101163.85
2022-08-07T16:18:50.419Z,101159.80
2022-08-07T16:21:57.163Z,101157.83
2022-08-07T16:24:34.641Z,101161.53
2022-08-07T16:27:17.825Z,101159.48
2022-08-07T16:30:29.552Z,101154.81
2022-08-07T16:34:07.177Z,101156.19
2022-08-07T16:36:32.070Z,101164.22
2022-08-07T16:39:33.850Z,101160.21
2022-08-07T16:42:34.662Z,101161.92
2022-08-07T16:46:40.304Z,101160.54
2022-08-07T16:50:27.790Z,101156.98
2022-08-07T16:52:49.242Z,101158.55
2022-08-07T16:55:11.410Z,101151.84
2022-08-07T16:58:03.483Z,101150.06
2022-08-07T17:00:43.185Z,101146.48
2022-08-07T17:03:58.014Z,101144.73
2022-08-07T17:06:45.779Z,101136.89
2022-08-07T17:10:07.228Z,101141.73
2022-08-07T17:12:36.680Z,101142.49
2022-08-07T17:15:22.064Z,101141.63
2022-08-07T17:18:19.402Z,101142.14
2022-08-07T17:20:54.882Z,101143.48
2022-08-07T17:23:44.174Z,101143.89
2022-08-07T17:26:30.478Z,101143.61
2022-08-07T17:30:12.369Z,101143.30
2022-08-07T17:32:28.796Z,101144.53
2022-08-07T17:35:49.904Z,101143.11
2022-08-07T17:38:32.040Z,101145.43
2022-08-07T17:42:00.712Z,101145.58
2022-08-07T17:44:08.282Z,101144.33
2022-08-07T17:46:53.433Z,101142.66
2022-08-07T17:49:31.717Z,101145.09
2022-08-07T17:52:50.643Z,101148.65
2022-08-07T17:56:00.923Z,101145.42
2022-08-07T17:58:46.162Z,101147.18
2022-08-07T18:01:34.825Z,101152.06
2022-08-07T18:04:22.536Z,101152.40
2022-08-07T18:07:24.575Z,101149.42
2022-08-07T18:10:05.896Z,101153.66
2022-08-07T18:13:09.682Z,101154.42
2022-08-07T18:15:55.614Z,101153.27
2022-08-07T18:18:45.764Z,101155.77
2022-08-07T18:21:54.907Z,101157.95
2022-08-07T18:24:34.304Z,101156.68
2022-08-07T18:27:25.432Z,101154.88
2022-08-07T18:30:32.001Z,101155.02
2022-08-07T18:33:55.261Z,101159.84
2022-08-07T18:36:36.247Z,101160.52
2022-08-07T18:40:08.615Z,101163.50
2022-08-07T18:42:18.636Z,101168.45
2022-08-07T18:45:43.303Z,101177.16
2022-08-07T18:48:04.082Z,101181.33
2022-08-07T18:50:59.153Z,101183.61
2022-08-07T18:53:46.337Z,101182.80
2022-08-07T18:56:34.171Z,101188.95
2022-08-07T18:59:47.961Z,101192.34
2022-08-07T19:02:42.177Z,101195.06
2022-08-07T19:05:23.541Z,101198.84
2022-08-07T19:08:05.208Z,101201.30
2022-08-07T19:10:49.558Z,101200.46
2022-08-07T19:13:27.792Z,101206.54
2022-08-07T19:17:01.327Z,101204.69
2022-08-07T19:19:43.477Z,101208.04
2022-08-07T19:23:18.516Z,101211.19
2022-08-07T19:26:23.929Z,101211.74
2022-08-07T19:30:55.986Z,101213.00
2022-08-07T19:32:11.433Z,101211.94
2022-08-07T19:34:48.443Z,101215.55
2022-08-07T19:37:23.820Z,101216.71
2022-08-07T19:40:01.901Z,101218.87
2022-08-07T19:42:42.884Z,101217.75
2022-08-07T19:46:04.620Z,101219.72
2022-08-07T19:48:19.022Z,101221.11
2022-08-07T19:50:57.579Z,101222.05
2022-08-07T19:54:29.832Z,101220.63
2022-08-07T19:57:51.866Z,101222.73
2022-08-07T19:59:22.134Z,101222.38
2022-08-07T20:02:02.589Z,101228.55
2022-08-07T20:04:40.283Z,101227.98
2022-08-07T20:07:14.311Z,101226.74
2022-08-07T20:10:35.351Z,101225.39
2022-08-07T20:12:52.408Z,101229.54
2022-08-07T20:15:32.783Z,101229.39
2022-08-07T20:18:14.620Z,101239.45
2022-08-07T20:20:51.635Z,101238.98
2022-08-07T20:23:41.599Z,101236.18
2022-08-07T20:26:20.538Z,101236.40
2022-08-07T20:29:10.552Z,101237.31
2022-08-07T20:31:50.679Z,101234.31
2022-08-07T20:34:49.674Z,101236.83
2022-08-07T20:37:24.290Z,101238.21
2022-08-07T20:40:03.035Z,101237.35
2022-08-07T20:42:44.411Z,101236.37
2022-08-07T20:45:32.592Z,101234.52
2022-08-07T20:48:25.798Z,101235.41
2022-08-07T20:51:03.280Z,101236.98
2022-08-07T20:54:03.489Z,101239.14
2022-08-07T20:56:32.422Z,101239.59
2022-08-07T21:00:05.494Z,101240.09
2022-08-07T21:02:00.851Z,101234.55
2022-08-07T21:04:34.445Z,101237.05
2022-08-07T21:07:14.509Z,101234.88
2022-08-07T21:10:00.234Z,101237.48
2022-08-07T21:12:36.862Z,101237.11
2022-08-07T21:15:18.853Z,101237.61
2022-08-07T21:18:17.524Z,101234.04
2022-08-07T21:20:56.073Z,101237.26
2022-08-07T21:23:42.717Z,101237.35
2022-08-07T21:26:34.761Z,101239.60
2022-08-07T21:29:18.263Z,101238.23
2022-08-07T21:32:46.920Z,101236.71
2022-08-07T21:35:00.582Z,101239.27
2022-08-07T21:37:57.757Z,101236.34
2022-08-07T21:40:38.347Z,101238.58
2022-08-07T21:43:15.076Z,101239.55
2022-08-07T21:46:11.305Z,101237.70
2022-08-07T21:49:00.845Z,101240.23
2022-08-07T21:51:54.678Z,101241.11
2022-08-07T21:54:39.261Z,101234.23
2022-08-07T21:57:44.439Z,101235.84
2022-08-07T22:00:22.956Z,101232.38
2022-08-07T22:03:03.320Z,101236.86
2022-08-07T22:05:45.389Z,101235.07
2022-08-07T22:08:21.377Z,101236.51
2022-08-07T22:11:00.252Z,101237.83
2022-08-07T22:13:52.683Z,101237.53
2022-08-07T22:16:45.003Z,101243.77
2022-08-07T22:19:30.190Z,101236.91
2022-08-07T22:22:20.691Z,101240.71
2022-08-07T22:25:08.674Z,101238.78
2022-08-07T22:28:05.983Z,101241.46
2022-08-07T22:30:52.721Z,101242.19
2022-08-07T22:33:53.680Z,101243.48
2022-08-07T22:36:32.659Z,101244.64
2022-08-07T22:39:14.140Z,101244.92
2022-08-07T22:42:03.668Z,101240.16
2022-08-07T22:44:58.346Z,101241.98
2022-08-07T22:48:03.077Z,101242.39
2022-08-07T22:54:05.405Z,101247.52
2022-08-07T22:56:56.862Z,101246.88
2022-08-07T22:59:53.379Z,101246.69
2022-08-07T23:02:56.763Z,101248.46
2022-08-07T23:06:08.794Z,101248.39
2022-08-07T23:10:01.119Z,101254.95
2022-08-07T23:12:34.726Z,101256.62
2022-08-07T23:15:21.999Z,101265.90
2022-08-07T23:18:25.876Z,101271.26
2022-08-07T23:21:30.367Z,101273.48
2022-08-07T23:24:27.811Z,101275.31
2022-08-07T23:27:16.286Z,101272.77
2022-08-07T23:30:39.126Z,101275.14
2022-08-07T23:34:36.831Z,101276.95
2022-08-07T23:36:43.236Z,101274.80
2022-08-07T23:39:22.555Z,101272.58
2022-08-07T23:42:15.698Z,101270.34
2022-08-07T23:45:15.211Z,101267.11
2022-08-07T23:48:05.514Z,101265.52
2022-08-07T23:50:42.026Z,101262.95
2022-08-07T23:53:49.964Z,101260.04
2022-08-07T23:56:26.814Z,101267.16
2022-08-07T23:59:10.227Z,101266.44
